Durango, Mexico

9:16 PM EST on August 30, 2016 (GMT -0500)
Durango | | Change Station

Elev 6093 ft 24.12 °N, 104.53 °W | Updated 34 minutes ago

Overcast
Overcast
63 °F
Feels Like 63 °F
N
4
Wind Variable Wind from NW

Today
High -- | Low -- °F
--% Chance of Precip.
Yesterday
High -- | Low -- °F
Precip. -- in
Pressure 30.19 in
Visibility 9.0 miles
Clouds Mostly Cloudy 7000 ft
Overcast 20000 ft
Dew Point 63 °F
Humidity 100%
Rainfall 0.75 in
Snow Depth Not available.
7:39 AM 8:17 PM
Waning Crescent, 2% visible
METAR MMDO 310142Z 31003KT 9SM BKN070 OVC200 17/17 A3019 RMK 8/063 DSNT CB S
Pressure 30.19 in
Visibility 9.0 miles
Clouds Mostly Cloudy 7000 ft
Overcast 20000 ft
Dew Point 63 °F
Humidity 100%
Rainfall 0.75 in
Snow Depth Not available.
7:39 AM 8:17 PM
Waning Crescent, 2% visible
METAR MMDO 310142Z 31003KT 9SM BKN070 OVC200 17/17 A3019 RMK 8/063 DSNT CB S

10-Day Weather Forecast

No radar image for this location.
×

Almanac

Astronomy

Aug. 30, 2016 Rise Set
Actual Time
Civil Twilight
Nautical Twilight
Astronomical Twilight
Moon
Length of Visible Light
Length of Day
Tomorrow will be .
, % of the Moon is Illuminated

Today's Extremes

Country Highs Country Lows

Community

WunderPhotos

Upload Photos

1,935,993 photos uploaded!

WunderBlog® & News

Nearby

Air Quality

  Air Quality AQ Index Pollutant
Not available.

Snow Depth

Station Depth Elevation

Earthquake Activity

City Distance Mag. Time & Date
Minimum magnitude displayed is 2.5.

Coastal Water Temperatures

Place Temperature

Stations

Nearby Weather Stations

Station Location Temp. Windchill Dew Point Humidity Wind Precip. Elev Updated Type